createdAt,value
2022-08-16T00:03:37.637Z,98561.19
2022-08-16T00:06:05.005Z,98559.63
2022-08-16T00:08:37.404Z,98556.44
2022-08-16T00:11:07.623Z,98552.81
2022-08-16T00:13:41.636Z,98558.03
2022-08-16T00:17:05.885Z,98554.44
2022-08-16T00:18:57.010Z,98560.41
2022-08-16T00:21:26.159Z,98562.03
2022-08-16T00:23:56.507Z,98549.72
2022-08-16T00:26:35.446Z,98563.69
2022-08-16T00:29:12.698Z,98556.91
2022-08-16T00:32:00.460Z,98556.75
2022-08-16T00:34:41.287Z,98563.69
2022-08-16T00:37:12.024Z,98567.97
2022-08-16T00:39:43.898Z,98564.13
2022-08-16T00:42:10.927Z,98570.19
2022-08-16T00:44:39.847Z,98579.78
2022-08-16T00:47:16.387Z,98580.69
2022-08-16T00:49:44.777Z,98599.81
2022-08-16T00:52:29.450Z,98662.28
2022-08-16T00:54:56.890Z,98674.28
2022-08-16T00:57:24.189Z,98695.41
2022-08-16T00:59:58.681Z,98644.09
2022-08-16T01:02:31.504Z,98650.00
2022-08-16T01:05:04.606Z,98649.69
2022-08-16T01:07:51.883Z,98641.56
2022-08-16T01:10:31.831Z,98642.94
2022-08-16T01:13:19.202Z,98661.94
2022-08-16T01:15:52.854Z,98669.50
2022-08-16T01:18:40.456Z,98659.97
2022-08-16T01:21:40.788Z,98669.47
2022-08-16T01:24:52.119Z,98654.75
2022-08-16T01:27:46.280Z,98650.44
2022-08-16T01:30:19.663Z,98641.28
2022-08-16T01:33:01.243Z,98645.97
2022-08-16T01:35:36.221Z,98634.03
2022-08-16T01:38:35.602Z,98625.34
2022-08-16T01:41:19.194Z,98624.41
2022-08-16T01:43:53.693Z,98621.53
2022-08-16T01:46:39.213Z,98619.09
2022-08-16T01:49:18.921Z,98607.41
2022-08-16T01:51:55.251Z,98607.06
2022-08-16T01:54:31.262Z,98600.44
2022-08-16T01:56:59.260Z,98602.66
2022-08-16T01:59:26.343Z,98601.53
2022-08-16T02:01:59.998Z,98593.84
2022-08-16T02:04:48.410Z,98590.19
2022-08-16T02:07:18.620Z,98592.66
2022-08-16T02:09:57.031Z,98592.72
2022-08-16T02:12:50.244Z,98586.03
2022-08-16T02:15:24.911Z,98581.91
2022-08-16T02:17:54.083Z,98584.94
2022-08-16T02:20:26.329Z,98584.88
2022-08-16T02:22:58.651Z,98586.53
2022-08-16T02:25:50.957Z,98583.78
2022-08-16T02:28:17.188Z,98591.50
2022-08-16T02:30:50.530Z,98579.94
2022-08-16T02:33:18.594Z,98579.78
2022-08-16T02:35:53.935Z,98576.97
2022-08-16T02:38:26.722Z,98587.34
2022-08-16T02:40:54.852Z,98583.63
2022-08-16T02:43:26.781Z,98582.66
2022-08-16T02:45:54.880Z,98585.97
2022-08-16T02:48:30.615Z,98594.53
2022-08-16T02:51:11.001Z,98592.81
2022-08-16T02:53:45.491Z,98589.66
2022-08-16T02:56:15.988Z,98592.47
2022-08-16T02:58:48.551Z,98591.81
2022-08-16T03:01:25.354Z,98596.09
2022-08-16T03:04:40.667Z,98598.59
2022-08-16T03:06:56.781Z,98593.22
2022-08-16T03:09:25.474Z,98596.69
2022-08-16T03:11:57.382Z,98602.63
2022-08-16T03:14:25.372Z,98601.69
2022-08-16T03:16:59.238Z,98600.06
2022-08-16T03:19:48.433Z,98599.19
2022-08-16T03:22:28.677Z,98600.88
2022-08-16T03:24:58.406Z,98598.34
2022-08-16T03:27:30.986Z,98606.31
2022-08-16T03:30:00.802Z,98604.78
2022-08-16T03:32:27.701Z,98596.03
2022-08-16T03:34:55.192Z,98605.09
2022-08-16T03:37:22.331Z,98604.91
2022-08-16T03:39:49.751Z,98617.31
2022-08-16T03:42:23.972Z,98617.25
2022-08-16T03:44:51.082Z,98618.88
2022-08-16T03:47:20.571Z,98621.53
2022-08-16T03:49:51.771Z,98625.34
2022-08-16T03:52:23.551Z,98627.81
2022-08-16T03:54:57.759Z,98621.69
2022-08-16T03:57:32.138Z,98626.09
2022-08-16T04:00:35.401Z,98634.97
2022-08-16T04:03:08.646Z,98633.38
2022-08-16T04:05:46.736Z,98622.09
2022-08-16T04:08:23.184Z,98629.25
2022-08-16T04:10:53.328Z,98634.09
2022-08-16T04:13:59.891Z,98636.06
2022-08-16T04:16:26.179Z,98639.72
2022-08-16T04:19:02.496Z,98634.50
2022-08-16T04:21:32.365Z,98638.25
2022-08-16T04:24:00.355Z,98636.44
2022-08-16T04:26:31.198Z,98632.81
2022-08-16T04:29:14.796Z,98625.97
2022-08-16T04:31:45.472Z,98635.44
2022-08-16T04:34:13.005Z,98642.25
2022-08-16T04:36:40.493Z,98634.38
2022-08-16T04:39:07.782Z,98637.22
2022-08-16T04:41:37.357Z,98626.81
2022-08-16T04:44:31.089Z,98630.78
2022-08-16T04:47:03.463Z,98629.41
2022-08-16T04:49:45.735Z,98632.22
2022-08-16T04:52:33.496Z,98629.00
2022-08-16T04:55:00.604Z,98632.38
2022-08-16T04:57:30.144Z,98637.22
2022-08-16T04:59:57.452Z,98642.13
2022-08-16T05:02:42.201Z,98638.41
2022-08-16T05:05:17.645Z,98647.16
2022-08-16T05:07:58.370Z,98634.88
2022-08-16T05:10:29.556Z,98640.09
2022-08-16T05:12:58.222Z,98639.63
2022-08-16T05:15:25.912Z,98638.31
2022-08-16T05:17:58.937Z,98634.50
2022-08-16T05:20:38.407Z,98637.31
2022-08-16T05:23:13.755Z,98643.13
2022-08-16T05:25:48.782Z,98643.94
2022-08-16T05:28:17.993Z,98636.31
2022-08-16T05:30:45.346Z,98640.72
2022-08-16T05:33:18.305Z,98629.34
2022-08-16T05:35:55.230Z,98621.31
2022-08-16T05:38:32.766Z,98624.28
2022-08-16T05:41:07.305Z,98624.19
2022-08-16T05:43:42.951Z,98622.03
2022-08-16T05:46:30.914Z,98621.28
2022-08-16T05:49:09.133Z,98621.47
2022-08-16T05:51:40.085Z,98623.81
2022-08-16T05:54:11.527Z,98629.31
2022-08-16T05:56:43.172Z,98623.44
2022-08-16T05:59:10.773Z,98613.63
2022-08-16T06:01:39.054Z,98612.75
2022-08-16T06:04:13.531Z,98619.34
2022-08-16T06:06:57.036Z,98619.84
2022-08-16T06:09:43.798Z,98624.41
2022-08-16T06:12:26.744Z,98627.19
2022-08-16T06:15:04.529Z,98636.22
2022-08-16T06:17:42.901Z,98644.78
2022-08-16T06:20:35.243Z,98648.91
2022-08-16T06:23:17.125Z,98648.22
2022-08-16T06:25:52.943Z,98653.19
2022-08-16T06:28:34.817Z,98640.63
2022-08-16T06:31:05.104Z,98636.34
2022-08-16T06:33:41.317Z,98639.97
2022-08-16T06:36:13.993Z,98643.56
2022-08-16T06:38:55.558Z,98642.91
2022-08-16T06:41:27.374Z,98644.25
2022-08-16T06:43:55.434Z,98643.34
2022-08-16T06:46:34.347Z,98634.06
2022-08-16T06:49:05.177Z,98641.25
2022-08-16T06:51:45.998Z,98636.75
2022-08-16T06:54:15.109Z,98631.84
2022-08-16T06:56:42.747Z,98629.88
2022-08-16T06:59:10.940Z,98635.47
2022-08-16T07:01:44.713Z,98633.69
2022-08-16T07:04:31.670Z,98629.00
2022-08-16T07:06:59.670Z,98629.91
2022-08-16T07:09:29.579Z,98627.78
2022-08-16T07:12:03.467Z,98634.66
2022-08-16T07:14:33.068Z,98637.91
2022-08-16T07:17:00.158Z,98637.38
2022-08-16T07:20:01.323Z,98634.06
2022-08-16T07:22:38.316Z,98634.16
2022-08-16T07:25:08.408Z,98628.19
2022-08-16T07:27:37.325Z,98621.13
2022-08-16T07:30:39.636Z,98639.38
2022-08-16T07:32:56.298Z,98636.56
2022-08-16T07:35:23.568Z,98639.50
2022-08-16T07:37:50.470Z,98643.00
2022-08-16T07:40:17.597Z,98650.38
2022-08-16T07:42:44.569Z,98653.88
2022-08-16T07:45:13.067Z,98660.22
2022-08-16T07:47:41.993Z,98658.00
2022-08-16T07:50:09.947Z,98666.78
2022-08-16T07:52:56.807Z,98673.25
2022-08-16T07:55:27.247Z,98669.94
2022-08-16T07:57:59.957Z,98680.53
2022-08-16T08:00:28.587Z,98688.88
2022-08-16T08:02:59.857Z,98678.84
2022-08-16T08:05:35.786Z,98681.53
2022-08-16T08:08:11.905Z,98685.50
2022-08-16T08:10:52.765Z,98687.31
2022-08-16T08:13:19.676Z,98679.81
2022-08-16T08:16:07.106Z,98687.88
2022-08-16T08:18:50.258Z,98688.28
2022-08-16T08:21:27.322Z,98686.16
2022-08-16T08:23:56.806Z,98700.41
2022-08-16T08:26:24.655Z,98691.31
2022-08-16T08:28:51.795Z,98696.06
2022-08-16T08:31:18.876Z,98696.22
2022-08-16T08:33:51.298Z,98699.88
2022-08-16T08:36:33.059Z,98709.78
2022-08-16T08:39:00.735Z,98711.09
2022-08-16T08:41:29.096Z,98704.50
2022-08-16T08:43:57.574Z,98700.88
2022-08-16T08:46:25.943Z,98704.44
2022-08-16T08:49:00.125Z,98709.47
2022-08-16T08:51:35.900Z,98713.41
2022-08-16T08:54:09.581Z,98714.94
2022-08-16T08:56:45.667Z,98707.75
2022-08-16T08:59:19.803Z,98707.69
2022-08-16T09:01:58.148Z,98709.81
2022-08-16T09:04:27.688Z,98700.41
2022-08-16T09:06:55.905Z,98699.09
2022-08-16T09:09:25.533Z,98705.09
2022-08-16T09:12:06.351Z,98709.31
2022-08-16T09:14:35.543Z,98709.81
2022-08-16T09:17:14.210Z,98696.81
2022-08-16T09:19:55.145Z,98689.69
2022-08-16T09:22:25.205Z,98697.91
2022-08-16T09:24:58.126Z,98704.41
2022-08-16T09:27:57.290Z,98702.06
2022-08-16T09:30:34.535Z,98702.06
2022-08-16T09:33:11.947Z,98697.06
2022-08-16T09:35:39.452Z,98693.91
2022-08-16T09:38:10.107Z,98691.00
2022-08-16T09:40:44.183Z,98691.69
2022-08-16T09:43:46.311Z,98687.00
2022-08-16T09:46:02.701Z,98682.78
2022-08-16T09:48:44.036Z,98682.59
2022-08-16T09:51:13.323Z,98683.00
2022-08-16T09:53:42.055Z,98683.63
2022-08-16T09:56:27.756Z,98686.28
2022-08-16T09:59:04.774Z,98682.13
2022-08-16T10:01:34.803Z,98679.41
2022-08-16T10:04:04.187Z,98686.78
2022-08-16T10:06:34.155Z,98676.53
2022-08-16T10:09:08.194Z,98697.53
2022-08-16T10:11:56.982Z,98687.69
2022-08-16T10:14:40.831Z,98692.47
2022-08-16T10:17:13.182Z,98694.22
2022-08-16T10:19:40.171Z,98698.00
2022-08-16T10:22:07.153Z,98695.34
2022-08-16T10:24:34.499Z,98698.56
2022-08-16T10:27:26.094Z,98688.50
2022-08-16T10:29:59.399Z,98694.75
2022-08-16T10:32:32.219Z,98701.25
2022-08-16T10:34:59.624Z,98695.78
2022-08-16T10:37:32.767Z,98699.78
2022-08-16T10:40:28.390Z,98698.88
2022-08-16T10:42:56.672Z,98697.56
2022-08-16T10:46:00.255Z,98692.16
2022-08-16T10:48:31.307Z,98691.25
2022-08-16T10:50:59.270Z,98692.88
2022-08-16T10:53:32.343Z,98684.38
2022-08-16T10:56:51.700Z,98688.72
2022-08-16T10:59:29.622Z,98687.09
2022-08-16T11:02:21.686Z,98680.50
2022-08-16T11:12:56.534Z,98680.13
2022-08-16T11:15:24.633Z,98672.91
2022-08-16T11:20:49.361Z,98676.19
2022-08-16T11:23:18.422Z,98680.88
2022-08-16T11:26:10.445Z,98667.59
2022-08-16T11:31:29.793Z,98673.03
2022-08-16T11:34:00.373Z,98677.44
2022-08-16T11:36:28.494Z,98667.72
2022-08-16T11:38:58.825Z,98664.78
2022-08-16T11:41:30.813Z,98670.16
2022-08-16T11:43:57.934Z,98675.09
2022-08-16T11:46:44.772Z,98666.41
2022-08-16T11:49:13.836Z,98667.72
2022-08-16T11:51:44.237Z,98671.72
2022-08-16T11:54:20.770Z,98666.72
2022-08-16T11:56:52.732Z,98662.41
2022-08-16T11:59:28.512Z,98663.59
2022-08-16T12:02:04.448Z,98655.03
2022-08-16T12:04:46.644Z,98655.56
2022-08-16T12:07:24.104Z,98654.44
2022-08-16T12:09:54.876Z,98645.16
2022-08-16T12:12:23.937Z,98635.22
2022-08-16T12:15:00.079Z,98642.84
2022-08-16T12:17:31.479Z,98637.34
2022-08-16T12:20:01.121Z,98636.47
2022-08-16T12:22:28.814Z,98643.53
2022-08-16T12:24:55.834Z,98635.59
2022-08-16T12:27:24.980Z,98644.34
2022-08-16T12:29:58.646Z,98645.22
2022-08-16T12:32:38.258Z,98632.53
2022-08-16T12:35:12.350Z,98640.03
2022-08-16T12:37:41.654Z,98637.09
2022-08-16T12:40:22.453Z,98640.31
2022-08-16T12:42:54.854Z,98633.28
2022-08-16T12:45:29.335Z,98627.16
2022-08-16T12:48:33.819Z,98621.03
2022-08-16T12:54:04.526Z,98611.00
2022-08-16T12:56:35.706Z,98608.66
2022-08-16T12:59:11.620Z,98616.34
2022-08-16T13:01:42.024Z,98616.09
2022-08-16T13:04:12.043Z,98618.19
2022-08-16T13:06:49.010Z,98611.03
2022-08-16T13:09:21.484Z,98615.16
2022-08-16T13:12:19.967Z,98618.25
2022-08-16T13:14:50.168Z,98614.28
2022-08-16T13:17:23.839Z,98607.22
2022-08-16T13:20:11.128Z,98608.69
2022-08-16T13:22:44.985Z,98599.78
2022-08-16T13:25:19.425Z,98617.16
2022-08-16T13:28:02.822Z,98606.56
2022-08-16T13:30:36.221Z,98603.72
2022-08-16T13:33:12.367Z,98611.78
2022-08-16T13:35:45.219Z,98616.59
2022-08-16T13:38:24.679Z,98610.94
2022-08-16T13:40:57.834Z,98587.88
2022-08-16T13:43:28.892Z,98586.31
2022-08-16T13:46:04.487Z,98585.28
2022-08-16T13:48:42.659Z,98582.88
2022-08-16T13:51:17.986Z,98606.19
2022-08-16T13:53:59.174Z,98605.84
2022-08-16T13:56:34.465Z,98605.16
2022-08-16T13:59:19.971Z,98603.78
2022-08-16T14:01:54.748Z,98599.34
2022-08-16T14:04:28.419Z,98598.38
2022-08-16T14:06:57.995Z,98593.25
2022-08-16T14:09:27.118Z,98597.88
2022-08-16T14:11:55.131Z,98599.41
2022-08-16T14:14:28.848Z,98592.97
2022-08-16T14:17:02.193Z,98591.09
2022-08-16T14:19:30.060Z,98588.88
2022-08-16T14:22:13.404Z,98590.28
2022-08-16T14:24:47.137Z,98599.81
2022-08-16T14:27:17.152Z,98581.81
2022-08-16T14:29:45.671Z,98581.56
2022-08-16T14:32:33.705Z,98584.09
2022-08-16T14:35:07.458Z,98588.09
2022-08-16T14:37:35.777Z,98582.16
2022-08-16T14:40:04.471Z,98578.59
2022-08-16T14:42:32.113Z,98580.03
2022-08-16T14:45:00.444Z,98578.19
2022-08-16T14:47:34.380Z,98575.22
2022-08-16T14:50:02.344Z,98577.34
2022-08-16T14:52:54.061Z,98582.66
2022-08-16T14:58:35.064Z,98582.94
2022-08-16T15:01:13.696Z,98577.13
2022-08-16T15:03:44.683Z,98571.34
2022-08-16T15:06:13.198Z,98582.34
2022-08-16T15:08:45.893Z,98591.34
2022-08-16T15:11:18.498Z,98583.03
2022-08-16T15:13:48.485Z,98587.03
2022-08-16T15:16:18.995Z,98590.72
2022-08-16T15:18:46.878Z,98593.25
2022-08-16T15:21:14.023Z,98590.72
2022-08-16T15:23:41.354Z,98582.94
2022-08-16T15:26:08.983Z,98586.75
2022-08-16T15:28:38.257Z,98585.91
2022-08-16T15:31:08.663Z,98579.78
2022-08-16T15:33:44.333Z,98595.75
2022-08-16T15:36:31.946Z,98580.47
2022-08-16T15:39:07.794Z,98583.28
2022-08-16T15:41:47.948Z,98583.00
2022-08-16T15:44:22.445Z,98580.28
2022-08-16T15:46:56.633Z,98580.69
2022-08-16T15:49:38.039Z,98582.94
2022-08-16T15:52:18.501Z,98588.84
2022-08-16T15:54:53.401Z,98579.66
2022-08-16T15:57:27.644Z,98577.50
2022-08-16T15:59:55.822Z,98571.81
2022-08-16T16:02:29.653Z,98566.25
2022-08-16T16:05:00.719Z,98575.44
2022-08-16T16:07:30.075Z,98568.91
2022-08-16T16:09:59.386Z,98576.50
2022-08-16T16:12:50.942Z,98568.28
2022-08-16T16:15:22.945Z,98566.75
2022-08-16T16:17:50.735Z,98564.41
2022-08-16T16:20:21.472Z,98565.22
2022-08-16T16:22:50.186Z,98576.06
2022-08-16T16:25:18.751Z,98574.75
2022-08-16T16:27:46.870Z,98578.06
2022-08-16T16:30:33.331Z,98573.09
2022-08-16T16:33:15.486Z,98570.28
2022-08-16T16:35:55.467Z,98573.09
2022-08-16T16:38:29.072Z,98570.53
2022-08-16T16:41:00.127Z,98573.72
2022-08-16T16:43:31.606Z,98579.59
2022-08-16T16:46:01.699Z,98579.34
2022-08-16T16:48:34.900Z,98583.75
2022-08-16T16:51:08.690Z,98596.88
2022-08-16T16:53:41.455Z,98596.78
2022-08-16T16:56:20.043Z,98595.78
2022-08-16T16:58:56.597Z,98580.84
2022-08-16T17:01:41.401Z,98604.66
2022-08-16T17:04:22.257Z,98601.13
2022-08-16T17:06:53.570Z,98608.50
2022-08-16T17:09:24.659Z,98609.59
2022-08-16T17:11:54.970Z,98623.28
2022-08-16T17:14:33.376Z,98616.25
2022-08-16T17:17:05.231Z,98617.91
2022-08-16T17:19:32.851Z,98617.03
2022-08-16T17:22:01.522Z,98622.28
2022-08-16T17:24:39.475Z,98620.66
2022-08-16T17:27:08.415Z,98626.91
2022-08-16T17:29:42.928Z,98631.94
2022-08-16T17:32:34.066Z,98629.22
2022-08-16T17:35:10.166Z,98623.25
2022-08-16T17:37:48.715Z,98640.78
2022-08-16T17:40:46.914Z,98633.66
2022-08-16T17:43:18.995Z,98638.66
2022-08-16T17:45:47.496Z,98627.50
2022-08-16T17:48:15.145Z,98638.47
2022-08-16T17:50:48.758Z,98639.09
2022-08-16T17:53:50.565Z,98643.44
2022-08-16T17:56:18.419Z,98644.31
2022-08-16T17:58:45.455Z,98654.47
2022-08-16T18:01:13.329Z,98655.34
2022-08-16T18:04:07.148Z,98651.31
2022-08-16T18:06:29.504Z,98667.59
2022-08-16T18:09:03.692Z,98664.88
2022-08-16T18:11:35.540Z,98662.88
2022-08-16T18:14:02.636Z,98683.09
2022-08-16T18:16:32.697Z,98672.13
2022-08-16T18:19:00.624Z,98667.75
2022-08-16T18:21:46.504Z,98684.09
2022-08-16T18:24:15.235Z,98681.91
2022-08-16T18:26:42.411Z,98675.53
2022-08-16T18:29:09.486Z,98680.31
2022-08-16T18:31:36.741Z,98673.06
2022-08-16T18:34:05.401Z,98675.16
2022-08-16T18:36:34.076Z,98675.59
2022-08-16T18:39:02.213Z,98673.66
2022-08-16T18:41:30.931Z,98669.91
2022-08-16T18:44:25.747Z,98672.63
2022-08-16T18:46:50.727Z,98687.34
2022-08-16T18:49:19.146Z,98685.91
2022-08-16T18:51:46.526Z,98694.47
2022-08-16T18:54:17.254Z,98701.59
2022-08-16T18:56:56.389Z,98691.16
2022-08-16T18:59:29.878Z,98695.72
2022-08-16T19:02:00.336Z,98691.41
2022-08-16T19:04:56.080Z,98703.94
2022-08-16T19:07:22.025Z,98700.59
2022-08-16T19:09:49.244Z,98702.69
2022-08-16T19:12:16.335Z,98704.16
2022-08-16T19:14:45.944Z,98708.78
2022-08-16T19:17:12.954Z,98708.53
2022-08-16T19:19:39.889Z,98698.47
2022-08-16T19:22:06.885Z,98711.19
2022-08-16T19:24:33.924Z,98717.25
2022-08-16T19:27:01.675Z,98719.91
2022-08-16T19:29:31.874Z,98723.44
2022-08-16T19:31:58.745Z,98728.16
2022-08-16T19:34:26.742Z,98726.03
2022-08-16T19:36:54.436Z,98733.94
2022-08-16T19:39:21.455Z,98733.56
2022-08-16T19:41:53.874Z,98735.47
2022-08-16T19:44:24.607Z,98730.50
2022-08-16T19:46:51.815Z,98729.38
2022-08-16T19:49:18.887Z,98746.84
2022-08-16T19:51:47.001Z,98739.75
2022-08-16T19:54:14.027Z,98738.22
2022-08-16T19:56:41.104Z,98754.75
2022-08-16T19:59:39.534Z,98760.13
2022-08-16T20:01:55.216Z,98758.16
2022-08-16T20:04:24.164Z,98755.44
2022-08-16T20:06:52.353Z,98768.34
2022-08-16T20:09:20.502Z,98764.41
2022-08-16T20:11:48.557Z,98765.28
2022-08-16T20:14:24.466Z,98761.41
2022-08-16T20:16:54.855Z,98764.75
2022-08-16T20:19:21.726Z,98763.13
2022-08-16T20:21:48.835Z,98759.53
2022-08-16T20:24:33.413Z,98752.44
2022-08-16T20:27:06.420Z,98761.84
2022-08-16T20:29:34.171Z,98756.44
2022-08-16T20:32:01.243Z,98763.66
2022-08-16T20:34:28.369Z,98756.63
2022-08-16T20:36:55.469Z,98763.38
2022-08-16T20:39:24.327Z,98752.50
2022-08-16T20:41:51.560Z,98757.72
2022-08-16T20:44:22.720Z,98753.78
2022-08-16T20:46:50.094Z,98762.69
2022-08-16T20:49:17.039Z,98766.03
2022-08-16T20:51:49.946Z,98763.50
2022-08-16T20:54:18.461Z,98772.38
2022-08-16T20:56:45.354Z,98776.81
2022-08-16T20:59:12.689Z,98769.72
2022-08-16T21:01:45.897Z,98768.84
2022-08-16T21:04:19.406Z,98769.78
2022-08-16T21:06:54.266Z,98778.63
2022-08-16T21:09:24.591Z,98776.13
2022-08-16T21:11:53.219Z,98777.34
2022-08-16T21:14:20.269Z,98774.81
2022-08-16T21:16:47.300Z,98779.88
2022-08-16T21:19:14.439Z,98775.69
2022-08-16T21:21:41.411Z,98788.97
2022-08-16T21:24:08.529Z,98787.97
2022-08-16T21:26:38.845Z,98799.34
2022-08-16T21:29:07.674Z,98792.63
2022-08-16T21:31:40.581Z,98804.84
2022-08-16T21:34:08.619Z,98789.47
2022-08-16T21:36:36.467Z,98790.22
2022-08-16T21:39:06.643Z,98795.41
2022-08-16T21:41:35.336Z,98798.84
2022-08-16T21:44:02.619Z,98812.94
2022-08-16T21:46:29.620Z,98782.94
2022-08-16T21:48:56.689Z,98811.00
2022-08-16T21:51:23.700Z,98814.34
2022-08-16T21:53:50.619Z,98815.53
2022-08-16T21:56:17.919Z,98817.28
2022-08-16T21:58:46.305Z,98818.00
2022-08-16T22:01:38.588Z,98810.22
2022-08-16T22:04:38.105Z,98811.44
2022-08-16T22:06:52.689Z,98812.38
2022-08-16T22:09:19.781Z,98817.06
2022-08-16T22:11:46.894Z,98818.28
2022-08-16T22:14:13.892Z,98799.78
2022-08-16T22:16:42.127Z,98821.19
2022-08-16T22:19:10.197Z,98824.72
2022-08-16T22:21:38.481Z,98825.75
2022-08-16T22:24:05.830Z,98826.50
2022-08-16T22:26:36.808Z,98825.50
2022-08-16T22:29:11.744Z,98828.16
2022-08-16T22:31:40.651Z,98828.81
2022-08-16T22:34:09.128Z,98828.50
2022-08-16T22:36:36.553Z,98830.03
2022-08-16T22:39:07.085Z,98823.72
2022-08-16T22:41:35.517Z,98822.84
2022-08-16T22:44:15.636Z,98813.34
2022-08-16T22:46:42.828Z,98822.81
2022-08-16T22:49:11.090Z,98823.84
2022-08-16T22:51:39.447Z,98808.28
2022-08-16T22:54:34.355Z,98818.50
2022-08-16T22:56:53.877Z,98813.56
2022-08-16T22:59:21.994Z,98814.34
2022-08-16T23:01:48.936Z,98810.13
2022-08-16T23:04:15.918Z,98809.94
2022-08-16T23:06:42.885Z,98813.25
2022-08-16T23:09:09.844Z,98805.41
2022-08-16T23:11:36.956Z,98793.25
2022-08-16T23:14:04.049Z,98814.72
2022-08-16T23:16:34.769Z,98808.22
2022-08-16T23:19:09.216Z,98808.44
2022-08-16T23:21:38.715Z,98799.72
2022-08-16T23:24:07.483Z,98811.72
2022-08-16T23:26:44.721Z,98812.72
2022-08-16T23:29:22.288Z,98803.44
2022-08-16T23:31:57.385Z,98808.00
2022-08-16T23:34:25.251Z,98805.63
2022-08-16T23:36:52.339Z,98811.03
2022-08-16T23:39:19.455Z,98814.69
2022-08-16T23:41:46.347Z,98810.38
2022-08-16T23:44:42.123Z,98802.59
2022-08-16T23:47:00.081Z,98806.31
2022-08-16T23:49:57.197Z,98800.88
2022-08-16T23:52:14.891Z,98807.69
2022-08-16T23:54:41.934Z,98806.97
2022-08-16T23:57:08.785Z,98806.81
2022-08-16T23:59:52.495Z,98795.44
